createdAt,value
2023-07-16T00:01:46.355Z,21.63
2023-07-16T00:04:12.694Z,21.86
2023-07-16T00:06:39.012Z,21.76
2023-07-16T00:09:05.591Z,21.82
2023-07-16T00:11:31.960Z,21.83
2023-07-16T00:13:58.277Z,21.80
2023-07-16T00:16:24.639Z,21.85
2023-07-16T00:18:51.246Z,21.56
2023-07-16T00:21:17.667Z,21.72
2023-07-16T00:23:44.089Z,21.61
2023-07-16T00:26:10.480Z,21.57
2023-07-16T00:28:36.871Z,21.63
2023-07-16T00:31:03.281Z,21.61
2023-07-16T00:33:29.634Z,21.57
2023-07-16T00:35:55.966Z,21.48
2023-07-16T00:38:22.490Z,21.49
2023-07-16T00:40:48.829Z,21.38
2023-07-16T00:43:15.190Z,21.54
2023-07-16T00:45:41.518Z,21.45
2023-07-16T00:48:07.991Z,21.37
2023-07-16T00:50:34.331Z,21.48
2023-07-16T00:53:00.882Z,21.42
2023-07-16T00:55:27.360Z,21.19
2023-07-16T00:57:53.708Z,21.14
2023-07-16T01:00:20.241Z,21.00
2023-07-16T01:02:46.779Z,21.04
2023-07-16T01:05:13.272Z,20.91
2023-07-16T01:07:39.732Z,20.93
2023-07-16T01:10:06.134Z,21.00
2023-07-16T01:12:32.473Z,21.14
2023-07-16T01:14:58.818Z,21.20
2023-07-16T01:17:25.419Z,21.30
2023-07-16T01:19:51.804Z,21.41
2023-07-16T01:22:18.118Z,21.61
2023-07-16T01:24:44.493Z,21.56
2023-07-16T01:27:11.868Z,21.46
2023-07-16T01:29:38.200Z,21.30
2023-07-16T01:32:04.616Z,21.23
2023-07-16T01:34:31.234Z,21.23
2023-07-16T01:36:57.625Z,21.02
2023-07-16T01:39:24.016Z,21.04
2023-07-16T01:41:50.416Z,20.80
2023-07-16T01:44:16.764Z,20.79
2023-07-16T01:46:43.178Z,20.68
2023-07-16T01:49:09.572Z,20.68
2023-07-16T01:51:35.936Z,20.55
2023-07-16T01:54:03.241Z,20.71
2023-07-16T01:56:29.644Z,20.71
2023-07-16T01:58:56.347Z,20.69
2023-07-16T02:01:22.768Z,20.73
2023-07-16T02:03:49.233Z,20.73
2023-07-16T02:06:16.641Z,20.64
2023-07-16T02:08:43.446Z,20.68
2023-07-16T02:11:09.762Z,20.31
2023-07-16T02:13:36.093Z,20.24
2023-07-16T02:16:02.472Z,20.18
2023-07-16T02:18:28.814Z,20.38
2023-07-16T02:20:55.135Z,20.46
2023-07-16T02:23:21.490Z,20.38
2023-07-16T02:25:48.168Z,20.31
2023-07-16T02:28:14.609Z,20.54
2023-07-16T02:30:40.959Z,20.49
2023-07-16T02:33:07.354Z,20.55
2023-07-16T02:35:33.810Z,20.43
2023-07-16T02:38:00.500Z,20.55
2023-07-16T02:40:26.878Z,20.61
2023-07-16T02:42:53.505Z,20.66
2023-07-16T02:45:19.886Z,20.50
2023-07-16T02:47:46.269Z,20.41
2023-07-16T02:50:15.105Z,20.53
2023-07-16T02:52:41.503Z,20.50
2023-07-16T02:55:07.851Z,20.57
2023-07-16T02:57:34.181Z,20.65
2023-07-16T03:00:00.564Z,20.59
2023-07-16T03:02:27.102Z,20.58
2023-07-16T03:04:53.790Z,20.65
2023-07-16T03:07:20.392Z,20.67
2023-07-16T03:09:46.772Z,20.61
2023-07-16T03:12:13.524Z,20.63
2023-07-16T03:14:39.965Z,20.66
2023-07-16T03:17:06.394Z,20.65
2023-07-16T03:19:33.123Z,20.65
2023-07-16T03:22:00.540Z,20.68
2023-07-16T03:24:27.029Z,20.69
2023-07-16T03:26:58.544Z,20.57
2023-07-16T03:29:31.067Z,20.50
2023-07-16T03:31:57.405Z,20.45
2023-07-16T03:34:23.764Z,20.42
2023-07-16T03:36:50.100Z,20.50
2023-07-16T03:39:16.493Z,20.41
2023-07-16T03:41:42.947Z,20.32
2023-07-16T03:44:09.304Z,20.21
2023-07-16T03:46:35.641Z,20.20
2023-07-16T03:49:02.331Z,20.28
2023-07-16T03:51:28.749Z,20.26
2023-07-16T03:53:55.310Z,20.20
2023-07-16T03:56:21.712Z,20.31
2023-07-16T03:58:48.099Z,20.31
2023-07-16T04:01:14.785Z,20.37
2023-07-16T04:03:41.167Z,20.43
2023-07-16T04:06:07.992Z,20.45
2023-07-16T04:08:34.377Z,20.47
2023-07-16T04:11:03.666Z,20.50
2023-07-16T04:13:32.290Z,20.52
2023-07-16T04:15:59.709Z,20.50
2023-07-16T04:18:26.118Z,20.53
2023-07-16T04:20:52.700Z,20.53
2023-07-16T04:23:19.081Z,20.56
2023-07-16T04:25:45.389Z,20.56
2023-07-16T04:28:11.950Z,20.58
2023-07-16T04:30:38.742Z,20.58
2023-07-16T04:33:05.232Z,20.57
2023-07-16T04:35:31.688Z,20.66
2023-07-16T04:37:58.134Z,20.60
2023-07-16T04:40:24.601Z,20.30
2023-07-16T04:42:50.970Z,19.84
2023-07-16T04:45:17.429Z,19.49
2023-07-16T04:47:43.885Z,19.46
2023-07-16T04:50:10.357Z,19.58
2023-07-16T04:52:36.755Z,19.48
2023-07-16T04:55:03.098Z,19.26
2023-07-16T04:57:29.673Z,19.26
2023-07-16T04:59:56.041Z,19.42
2023-07-16T05:02:22.459Z,19.33
2023-07-16T05:04:48.851Z,19.45
2023-07-16T05:07:15.325Z,19.43
2023-07-16T05:09:41.719Z,19.59
2023-07-16T05:12:08.556Z,19.75
2023-07-16T05:14:36.254Z,19.90
2023-07-16T05:17:02.820Z,19.89
2023-07-16T05:19:29.244Z,19.97
2023-07-16T05:21:55.583Z,20.21
2023-07-16T05:24:21.986Z,20.27
2023-07-16T05:26:49.096Z,20.29
2023-07-16T05:29:19.611Z,20.50
2023-07-16T05:31:45.975Z,20.62
2023-07-16T05:34:12.314Z,20.69
2023-07-16T05:36:39.067Z,20.61
2023-07-16T05:39:06.922Z,20.67
2023-07-16T05:41:33.250Z,20.62
2023-07-16T05:43:59.810Z,20.45
2023-07-16T05:46:26.214Z,20.22
2023-07-16T05:48:52.663Z,20.41
2023-07-16T05:51:19.145Z,20.36
2023-07-16T05:53:45.777Z,20.29
2023-07-16T05:56:12.130Z,20.53
2023-07-16T05:58:38.606Z,20.57
2023-07-16T06:01:04.945Z,20.68
2023-07-16T06:03:31.712Z,20.76
2023-07-16T06:05:58.136Z,20.80
2023-07-16T06:08:24.837Z,20.94
2023-07-16T06:10:51.195Z,21.06
2023-07-16T06:13:17.802Z,21.11
2023-07-16T06:15:45.720Z,21.14
2023-07-16T06:18:14.407Z,20.95
2023-07-16T06:20:42.645Z,21.00
2023-07-16T06:23:09.101Z,21.10
2023-07-16T06:25:35.733Z,21.17
2023-07-16T06:28:02.240Z,21.24
2023-07-16T06:30:28.846Z,21.26
2023-07-16T06:32:55.267Z,21.30
2023-07-16T06:35:21.658Z,21.61
2023-07-16T06:37:48.025Z,21.66
2023-07-16T06:40:14.355Z,21.75
2023-07-16T06:42:40.740Z,21.71
2023-07-16T06:45:07.506Z,21.83
2023-07-16T06:47:33.969Z,21.89
2023-07-16T06:50:00.414Z,22.06
2023-07-16T06:52:26.788Z,22.20
2023-07-16T06:54:53.590Z,22.26
2023-07-16T06:57:19.940Z,22.31
2023-07-16T06:59:46.378Z,22.10
2023-07-16T07:02:12.778Z,22.19
2023-07-16T07:04:39.111Z,22.43
2023-07-16T07:07:05.431Z,22.53
2023-07-16T07:09:31.969Z,22.63
2023-07-16T07:11:58.291Z,22.68
2023-07-16T07:14:25.943Z,22.67
2023-07-16T07:16:54.877Z,22.70
2023-07-16T07:19:21.482Z,22.23
2023-07-16T07:21:48.170Z,22.37
2023-07-16T07:24:14.592Z,22.15
2023-07-16T07:26:41.025Z,22.14
2023-07-16T07:29:07.447Z,22.23
2023-07-16T07:31:33.929Z,22.26
2023-07-16T07:34:00.544Z,22.30
2023-07-16T07:36:26.925Z,22.30
2023-07-16T07:38:53.715Z,22.02
2023-07-16T07:41:20.153Z,22.22
2023-07-16T07:43:46.526Z,22.21
2023-07-16T07:46:13.078Z,22.46
2023-07-16T07:48:39.654Z,22.61
2023-07-16T07:51:06.375Z,22.83
2023-07-16T07:53:32.740Z,23.16
2023-07-16T07:56:00.418Z,23.23
2023-07-16T07:58:27.068Z,23.43
2023-07-16T08:00:53.470Z,23.44
2023-07-16T08:03:20.056Z,23.43
2023-07-16T08:05:46.645Z,23.41
2023-07-16T08:08:13.026Z,23.05
2023-07-16T08:10:39.408Z,23.18
2023-07-16T08:13:05.811Z,23.13
2023-07-16T08:15:32.180Z,23.11
2023-07-16T08:18:01.093Z,22.91
2023-07-16T08:20:27.508Z,23.04
2023-07-16T08:22:53.903Z,22.77
2023-07-16T08:25:20.471Z,22.46
2023-07-16T08:27:46.802Z,22.81
2023-07-16T08:30:13.768Z,23.07
2023-07-16T08:32:40.188Z,23.56
2023-07-16T08:35:06.670Z,23.61
2023-07-16T08:37:33.039Z,23.91
2023-07-16T08:39:59.416Z,23.70
2023-07-16T08:42:25.732Z,23.83
2023-07-16T08:44:52.093Z,24.08
2023-07-16T08:47:18.484Z,24.20
2023-07-16T08:49:44.861Z,24.58
2023-07-16T08:52:11.230Z,24.62
2023-07-16T08:54:37.599Z,24.70
2023-07-16T08:57:03.938Z,24.74
2023-07-16T08:59:30.261Z,24.95
2023-07-16T09:01:56.690Z,23.87
2023-07-16T09:04:23.139Z,24.26
2023-07-16T09:06:49.544Z,24.28
2023-07-16T09:09:15.874Z,23.18
2023-07-16T09:11:42.242Z,22.57
2023-07-16T09:14:08.582Z,23.12
2023-07-16T09:16:34.969Z,23.55
2023-07-16T09:19:01.316Z,23.73
2023-07-16T09:21:27.658Z,23.58
2023-07-16T09:23:54.015Z,23.63
2023-07-16T09:26:20.784Z,23.22
2023-07-16T09:28:47.308Z,23.32
2023-07-16T09:31:13.684Z,23.50
2023-07-16T09:33:40.056Z,23.80
2023-07-16T09:36:06.490Z,24.00
2023-07-16T09:38:32.913Z,24.46
2023-07-16T09:40:59.295Z,24.86
2023-07-16T09:43:25.616Z,25.03
2023-07-16T09:45:52.033Z,25.39
2023-07-16T09:48:18.523Z,25.69
2023-07-16T09:50:44.953Z,25.55
2023-07-16T09:53:11.338Z,25.19
2023-07-16T09:55:37.693Z,25.38
2023-07-16T09:58:04.056Z,25.52
2023-07-16T10:00:30.374Z,25.45
2023-07-16T10:02:56.796Z,25.68
2023-07-16T10:05:23.208Z,25.64
2023-07-16T10:07:49.586Z,25.68
2023-07-16T10:10:15.907Z,25.55
2023-07-16T10:12:42.276Z,25.84
2023-07-16T10:15:08.617Z,26.07
2023-07-16T10:17:35.033Z,26.27
2023-07-16T10:20:01.411Z,26.25
2023-07-16T10:22:27.844Z,26.40
2023-07-16T10:24:54.236Z,26.26
2023-07-16T10:27:20.581Z,26.31
2023-07-16T10:29:46.954Z,26.38
2023-07-16T10:32:14.867Z,26.40
2023-07-16T10:34:43.312Z,26.32
2023-07-16T10:37:09.696Z,26.31
2023-07-16T10:39:36.086Z,26.38
2023-07-16T10:42:02.468Z,26.35
2023-07-16T10:44:28.877Z,26.05
2023-07-16T10:46:55.256Z,26.10
2023-07-16T10:49:21.637Z,26.03
2023-07-16T10:51:47.971Z,26.01
2023-07-16T10:54:14.358Z,26.11
2023-07-16T10:56:40.730Z,26.30
2023-07-16T10:59:07.060Z,26.65
2023-07-16T11:01:33.417Z,26.75
2023-07-16T11:03:59.813Z,26.77
2023-07-16T11:06:26.213Z,26.85
2023-07-16T11:08:52.609Z,27.15
2023-07-16T11:11:18.937Z,27.34
2023-07-16T11:13:48.323Z,27.54
2023-07-16T11:16:15.345Z,27.66
2023-07-16T11:18:41.933Z,27.28
2023-07-16T11:21:08.305Z,27.32
2023-07-16T11:23:34.636Z,26.98
2023-07-16T11:26:00.944Z,27.23
2023-07-16T11:28:27.258Z,27.10
2023-07-16T11:30:53.681Z,26.84
2023-07-16T11:33:20.068Z,26.25
2023-07-16T11:35:46.404Z,26.53
2023-07-16T11:38:12.720Z,26.98
2023-07-16T11:40:39.034Z,27.10
2023-07-16T11:43:05.397Z,27.34
2023-07-16T11:45:31.736Z,27.52
2023-07-16T11:47:58.067Z,27.52
2023-07-16T11:50:24.552Z,27.20
2023-07-16T11:52:50.996Z,27.33
2023-07-16T11:55:17.373Z,27.28
2023-07-16T11:57:43.689Z,27.04
2023-07-16T12:00:10.063Z,25.65
2023-07-16T12:02:36.451Z,25.68
2023-07-16T12:05:02.821Z,26.30
2023-07-16T12:07:29.688Z,26.50
2023-07-16T12:09:56.090Z,26.71
2023-07-16T12:12:22.418Z,26.38
2023-07-16T12:14:48.787Z,26.67
2023-07-16T12:17:15.278Z,26.59
2023-07-16T12:19:41.674Z,26.88
2023-07-16T12:22:08.157Z,26.66
2023-07-16T12:24:34.559Z,26.58
2023-07-16T12:27:00.995Z,26.90
2023-07-16T12:29:27.430Z,26.72
2023-07-16T12:31:53.745Z,26.40
2023-07-16T12:34:20.071Z,26.36
2023-07-16T12:36:46.445Z,26.48
2023-07-16T12:39:12.846Z,26.25
2023-07-16T12:41:39.199Z,25.33
2023-07-16T12:44:05.540Z,24.88
2023-07-16T12:46:31.964Z,24.88
2023-07-16T12:48:58.412Z,25.09
2023-07-16T12:51:24.892Z,25.47
2023-07-16T12:53:51.258Z,25.38
2023-07-16T12:56:17.957Z,25.35
2023-07-16T12:58:44.575Z,25.58
2023-07-16T13:01:11.004Z,25.88
2023-07-16T13:03:37.447Z,26.13
2023-07-16T13:06:03.794Z,26.41
2023-07-16T13:08:30.191Z,26.63
2023-07-16T13:10:56.547Z,26.87
2023-07-16T13:13:22.895Z,26.81
2023-07-16T13:15:49.288Z,27.03
2023-07-16T13:18:15.673Z,26.91
2023-07-16T13:20:42.006Z,26.96
2023-07-16T13:23:08.336Z,26.89
2023-07-16T13:25:34.788Z,26.73
2023-07-16T13:28:01.183Z,27.02
2023-07-16T13:30:27.669Z,27.02
2023-07-16T13:32:54.148Z,27.04
2023-07-16T13:35:20.590Z,27.03
2023-07-16T13:37:46.920Z,26.73
2023-07-16T13:40:13.303Z,26.57
2023-07-16T13:42:39.670Z,26.29
2023-07-16T13:45:06.207Z,26.69
2023-07-16T13:47:32.571Z,26.53
2023-07-16T13:49:59.075Z,26.98
2023-07-16T13:52:25.417Z,27.16
2023-07-16T13:54:52.021Z,27.44
2023-07-16T13:57:18.330Z,27.21
2023-07-16T13:59:44.879Z,26.99
2023-07-16T14:02:11.374Z,26.84
2023-07-16T14:04:37.795Z,26.86
2023-07-16T14:07:04.164Z,27.07
2023-07-16T14:09:30.509Z,26.81
2023-07-16T14:11:56.814Z,27.23
2023-07-16T14:14:23.198Z,26.65
2023-07-16T14:16:49.620Z,26.92
2023-07-16T14:19:16.010Z,27.20
2023-07-16T14:21:42.409Z,27.30
2023-07-16T14:24:08.726Z,27.50
2023-07-16T14:26:35.092Z,26.45
2023-07-16T14:29:01.461Z,26.18
2023-07-16T14:31:27.806Z,26.38
2023-07-16T14:33:54.207Z,26.80
2023-07-16T14:36:21.488Z,27.10
2023-07-16T14:38:47.813Z,26.83
2023-07-16T14:41:14.192Z,26.91
2023-07-16T14:43:40.825Z,27.23
2023-07-16T14:46:07.385Z,27.37
2023-07-16T14:48:33.938Z,27.38
2023-07-16T14:51:00.325Z,27.76
2023-07-16T14:53:26.651Z,28.02
2023-07-16T14:55:53.068Z,28.11
2023-07-16T14:58:19.459Z,26.98
2023-07-16T15:00:46.041Z,26.69
2023-07-16T15:03:12.493Z,27.24
2023-07-16T15:05:38.994Z,27.28
2023-07-16T15:08:05.624Z,27.01
2023-07-16T15:10:32.130Z,26.89
2023-07-16T15:12:58.526Z,27.04
2023-07-16T15:15:24.916Z,26.56
2023-07-16T15:17:51.324Z,26.91
2023-07-16T15:20:17.738Z,26.40
2023-07-16T15:22:44.228Z,26.76
2023-07-16T15:25:10.612Z,26.40
2023-07-16T15:27:37.008Z,27.04
2023-07-16T15:30:03.748Z,27.55
2023-07-16T15:32:30.162Z,28.00
2023-07-16T15:34:56.631Z,28.38
2023-07-16T15:37:23.002Z,28.56
2023-07-16T15:39:49.439Z,28.67
2023-07-16T15:42:15.888Z,29.06
2023-07-16T15:44:42.353Z,28.77
2023-07-16T15:47:08.870Z,28.96
2023-07-16T15:49:35.479Z,28.61
2023-07-16T15:52:01.815Z,28.62
2023-07-16T15:54:28.259Z,28.23
2023-07-16T15:56:54.693Z,28.45
2023-07-16T15:59:21.048Z,28.27
2023-07-16T16:01:47.452Z,28.17
2023-07-16T16:04:13.934Z,27.46
2023-07-16T16:06:40.341Z,27.19
2023-07-16T16:09:06.716Z,27.55
2023-07-16T16:11:33.101Z,27.80
2023-07-16T16:13:59.505Z,28.24
2023-07-16T16:16:25.895Z,28.00
2023-07-16T16:18:52.374Z,27.95
2023-07-16T16:21:19.040Z,28.18
2023-07-16T16:23:46.648Z,28.14
2023-07-16T16:26:13.029Z,28.17
2023-07-16T16:28:39.449Z,28.41
2023-07-16T16:31:05.942Z,28.42
2023-07-16T16:33:32.338Z,28.18
2023-07-16T16:35:58.654Z,28.09
2023-07-16T16:38:24.974Z,27.55
2023-07-16T16:40:51.388Z,27.71
2023-07-16T16:43:17.982Z,27.72
2023-07-16T16:45:44.393Z,27.65
2023-07-16T16:48:10.989Z,27.65
2023-07-16T16:50:37.470Z,27.09
2023-07-16T16:53:03.922Z,27.05
2023-07-16T16:55:30.332Z,27.06
2023-07-16T16:57:56.925Z,27.08
2023-07-16T17:00:23.669Z,26.69
2023-07-16T17:02:50.543Z,26.77
2023-07-16T17:05:17.073Z,26.84
2023-07-16T17:07:43.506Z,27.19
2023-07-16T17:10:09.936Z,27.33
2023-07-16T17:12:38.579Z,27.31
2023-07-16T17:15:05.967Z,27.23
2023-07-16T17:17:32.413Z,27.37
2023-07-16T17:19:58.945Z,27.67
2023-07-16T17:22:25.341Z,27.14
2023-07-16T17:24:51.693Z,27.41
2023-07-16T17:27:18.342Z,27.49
2023-07-16T17:29:44.922Z,27.44
2023-07-16T17:32:11.290Z,26.81
2023-07-16T17:34:37.646Z,27.02
2023-07-16T17:37:04.086Z,27.13
2023-07-16T17:39:30.836Z,27.16
2023-07-16T17:41:57.333Z,27.08
2023-07-16T17:44:23.826Z,27.10
2023-07-16T17:46:50.322Z,26.92
2023-07-16T17:49:17.233Z,26.81
2023-07-16T17:51:43.563Z,26.74
2023-07-16T17:54:09.923Z,26.72
2023-07-16T17:56:36.599Z,26.69
2023-07-16T17:59:02.992Z,26.52
2023-07-16T18:01:29.509Z,26.49
2023-07-16T18:03:56.047Z,26.42
2023-07-16T18:06:22.512Z,26.38
2023-07-16T18:08:48.881Z,26.38
2023-07-16T18:11:15.299Z,26.47
2023-07-16T18:13:41.695Z,26.33
2023-07-16T18:16:08.100Z,26.29
2023-07-16T18:18:34.440Z,26.29
2023-07-16T18:21:03.047Z,26.07
2023-07-16T18:23:41.382Z,25.94
2023-07-16T18:26:07.849Z,25.98
2023-07-16T18:28:34.243Z,25.78
2023-07-16T18:31:00.596Z,25.72
2023-07-16T18:33:27.093Z,25.64
2023-07-16T18:35:53.516Z,25.49
2023-07-16T18:38:19.846Z,25.48
2023-07-16T18:40:46.158Z,25.33
2023-07-16T18:43:12.474Z,25.19
2023-07-16T18:45:38.899Z,25.22
2023-07-16T18:48:05.452Z,25.19
2023-07-16T18:50:32.026Z,25.21
2023-07-16T18:52:58.533Z,25.22
2023-07-16T18:55:26.207Z,25.24
2023-07-16T18:57:52.616Z,25.19
2023-07-16T19:00:18.924Z,25.39
2023-07-16T19:02:45.337Z,25.30
2023-07-16T19:05:12.023Z,25.01
2023-07-16T19:07:38.466Z,24.99
2023-07-16T19:10:04.792Z,25.09
2023-07-16T19:12:31.109Z,25.06
2023-07-16T19:14:57.512Z,24.93
2023-07-16T19:17:24.100Z,24.81
2023-07-16T19:19:50.439Z,24.75
2023-07-16T19:22:16.798Z,24.72
2023-07-16T19:24:43.139Z,24.63
2023-07-16T19:27:09.539Z,24.58
2023-07-16T19:29:36.005Z,24.50
2023-07-16T19:32:02.478Z,24.41
2023-07-16T19:34:29.472Z,24.37
2023-07-16T19:36:56.059Z,24.42
2023-07-16T19:39:22.576Z,24.31
2023-07-16T19:41:49.023Z,24.28
2023-07-16T19:44:15.357Z,24.32
2023-07-16T19:46:41.693Z,24.49
2023-07-16T19:49:08.082Z,24.38
2023-07-16T19:51:34.553Z,24.34
2023-07-16T19:54:01.032Z,24.34
2023-07-16T19:56:27.466Z,24.26
2023-07-16T19:58:54.420Z,24.38
2023-07-16T20:01:21.046Z,24.08
2023-07-16T20:03:47.645Z,23.99
2023-07-16T20:14:45.091Z,23.85
2023-07-16T20:17:11.555Z,23.82
2023-07-16T20:19:38.976Z,23.76
2023-07-16T20:22:05.337Z,23.72
2023-07-16T20:24:31.650Z,23.70
2023-07-16T20:26:58.020Z,23.70
2023-07-16T20:29:24.381Z,23.63
2023-07-16T20:31:50.950Z,23.55
2023-07-16T20:34:17.318Z,23.49
2023-07-16T20:36:43.723Z,23.34
2023-07-16T20:39:10.317Z,23.39
2023-07-16T20:41:36.708Z,23.41
2023-07-16T20:44:03.052Z,23.35
2023-07-16T20:46:29.470Z,23.34
2023-07-16T20:48:56.160Z,23.29
2023-07-16T20:51:22.526Z,23.22
2023-07-16T20:53:48.924Z,23.19
2023-07-16T20:56:15.253Z,23.07
2023-07-16T20:58:41.676Z,23.06
2023-07-16T21:01:08.066Z,22.76
2023-07-16T21:03:34.642Z,22.83
2023-07-16T21:06:01.085Z,22.78
2023-07-16T21:08:27.405Z,22.67
2023-07-16T21:10:53.781Z,22.67
2023-07-16T21:13:20.337Z,22.79
2023-07-16T21:15:46.888Z,22.78
2023-07-16T21:18:13.371Z,22.81
2023-07-16T21:20:39.844Z,22.84
2023-07-16T21:23:06.296Z,22.87
2023-07-16T21:25:32.726Z,22.81
2023-07-16T21:27:59.112Z,22.84
2023-07-16T21:30:25.494Z,22.44
2023-07-16T21:32:52.011Z,22.30
2023-07-16T21:35:18.511Z,22.50
2023-07-16T21:37:44.870Z,22.56
2023-07-16T21:40:11.182Z,22.52
2023-07-16T21:42:37.567Z,22.61
2023-07-16T21:45:04.033Z,22.56
2023-07-16T21:47:30.438Z,22.61
2023-07-16T21:49:56.781Z,22.61
2023-07-16T21:52:23.121Z,22.61
2023-07-16T21:54:49.433Z,22.50
2023-07-16T21:57:15.766Z,22.42
2023-07-16T21:59:42.145Z,22.40
2023-07-16T22:02:08.664Z,22.32
2023-07-16T22:04:35.255Z,22.33
2023-07-16T22:07:01.617Z,22.31
2023-07-16T22:09:27.995Z,22.29
2023-07-16T22:11:54.441Z,22.13
2023-07-16T22:14:20.895Z,22.15
2023-07-16T22:16:47.631Z,22.17
2023-07-16T22:19:30.675Z,22.14
2023-07-16T22:21:59.139Z,22.14
2023-07-16T22:24:25.479Z,22.06
2023-07-16T22:26:51.943Z,22.05
2023-07-16T22:29:18.476Z,22.19
2023-07-16T22:31:44.898Z,21.93
2023-07-16T22:34:11.472Z,21.64
2023-07-16T22:36:37.889Z,21.64
2023-07-16T22:39:04.264Z,21.62
2023-07-16T22:41:30.597Z,21.57
2023-07-16T22:43:57.043Z,21.53
2023-07-16T22:46:23.670Z,21.54
2023-07-16T22:48:50.085Z,21.56
2023-07-16T22:51:16.770Z,21.54
2023-07-16T22:53:43.670Z,21.47
2023-07-16T22:56:09.979Z,21.45
2023-07-16T22:58:36.359Z,21.41
2023-07-16T23:01:02.699Z,21.37
2023-07-16T23:03:29.230Z,21.35
2023-07-16T23:05:55.885Z,21.37
2023-07-16T23:08:22.395Z,21.28
2023-07-16T23:10:48.781Z,21.28
2023-07-16T23:13:15.151Z,21.28
2023-07-16T23:15:41.635Z,21.29
2023-07-16T23:18:08.075Z,21.31
2023-07-16T23:20:34.506Z,21.32
2023-07-16T23:23:00.924Z,21.32
2023-07-16T23:25:27.328Z,21.33
2023-07-16T23:27:54.400Z,21.35
2023-07-16T23:30:20.998Z,21.29
2023-07-16T23:32:47.627Z,21.28
2023-07-16T23:35:14.045Z,21.26
2023-07-16T23:37:40.444Z,21.27
2023-07-16T23:40:06.984Z,21.25
2023-07-16T23:42:33.510Z,21.21
2023-07-16T23:44:59.929Z,21.16
2023-07-16T23:47:26.302Z,21.14
2023-07-16T23:49:52.701Z,21.15
2023-07-16T23:52:19.285Z,21.17
2023-07-16T23:54:45.941Z,21.13
2023-07-16T23:57:14.032Z,21.10
2023-07-16T23:59:41.490Z,21.29
